createdAt,value
2023-05-19T00:00:41.907Z,56.73
2023-05-19T00:01:41.950Z,56.74
2023-05-19T00:02:42.074Z,56.24
2023-05-19T00:03:42.079Z,54.31
2023-05-19T00:04:42.121Z,54.51
2023-05-19T00:05:42.187Z,55.45
2023-05-19T00:06:42.228Z,54.43
2023-05-19T00:07:42.278Z,53.77
2023-05-19T00:08:42.331Z,56.32
2023-05-19T00:09:42.402Z,56.51
2023-05-19T00:10:42.458Z,52.54
2023-05-19T00:11:42.506Z,55.30
2023-05-19T00:12:42.556Z,51.69
2023-05-19T00:13:42.603Z,52.13
2023-05-19T00:14:42.665Z,53.00
2023-05-19T00:15:42.722Z,53.22
2023-05-19T00:16:42.707Z,53.56
2023-05-19T00:17:42.750Z,54.05
2023-05-19T00:18:42.759Z,55.28
2023-05-19T00:19:42.762Z,55.47
2023-05-19T00:20:42.801Z,56.12
2023-05-19T00:21:42.828Z,56.37
2023-05-19T00:22:42.835Z,54.04
2023-05-19T00:23:42.870Z,53.72
2023-05-19T00:24:42.894Z,55.17
2023-05-19T00:25:42.922Z,57.89
2023-05-19T00:26:42.939Z,52.38
2023-05-19T00:27:42.959Z,52.72
2023-05-19T00:28:42.985Z,54.50
2023-05-19T00:29:42.995Z,57.10
2023-05-19T00:30:43.010Z,53.36
2023-05-19T00:31:43.053Z,55.61
2023-05-19T00:32:43.142Z,53.66
2023-05-19T00:33:43.134Z,54.92
2023-05-19T00:34:43.174Z,55.92
2023-05-19T00:35:43.226Z,51.13
2023-05-19T00:36:43.284Z,51.68
2023-05-19T00:37:43.335Z,55.10
2023-05-19T00:38:43.352Z,55.21
2023-05-19T00:39:43.396Z,55.74
2023-05-19T00:40:43.405Z,55.51
2023-05-19T00:41:43.443Z,58.18
2023-05-19T00:42:43.507Z,58.31
2023-05-19T00:43:43.472Z,56.02
2023-05-19T00:44:43.500Z,59.04
2023-05-19T00:45:43.523Z,58.15
2023-05-19T00:46:43.571Z,55.63
2023-05-19T00:47:43.631Z,53.52
2023-05-19T00:48:43.591Z,55.63
2023-05-19T00:49:43.602Z,56.30
2023-05-19T00:50:43.624Z,53.80
2023-05-19T00:51:43.639Z,56.17
2023-05-19T00:52:43.672Z,56.40
2023-05-19T00:53:43.698Z,54.78
2023-05-19T00:54:43.743Z,56.15
2023-05-19T00:55:43.812Z,55.22
2023-05-19T00:56:43.863Z,54.33
2023-05-19T00:57:43.934Z,54.34
2023-05-19T00:58:43.975Z,53.71
2023-05-19T00:59:44.042Z,54.14
2023-05-19T01:00:44.126Z,54.09
2023-05-19T01:01:44.128Z,54.35
2023-05-19T01:02:44.167Z,54.82
2023-05-19T01:03:44.246Z,54.43
2023-05-19T01:04:44.185Z,50.96
2023-05-19T01:05:44.209Z,56.18
2023-05-19T01:06:44.241Z,57.36
2023-05-19T01:07:44.272Z,51.08
2023-05-19T01:08:44.283Z,58.31
2023-05-19T01:09:44.310Z,54.84
2023-05-19T01:10:44.323Z,54.98
2023-05-19T01:11:44.366Z,55.24
2023-05-19T01:12:44.379Z,55.79
2023-05-19T01:13:44.409Z,54.87
2023-05-19T01:14:44.419Z,57.10
2023-05-19T01:15:44.453Z,55.33
2023-05-19T01:16:44.548Z,55.86
2023-05-19T01:17:44.514Z,56.10
2023-05-19T01:18:44.587Z,56.09
2023-05-19T01:19:44.519Z,55.68
2023-05-19T01:20:44.533Z,51.19
2023-05-19T01:21:44.620Z,56.23
2023-05-19T01:22:44.580Z,51.08
2023-05-19T01:23:44.628Z,51.81
2023-05-19T01:24:44.642Z,54.33
2023-05-19T01:25:44.690Z,54.25
2023-05-19T01:26:44.748Z,56.71
2023-05-19T01:27:44.811Z,53.33
2023-05-19T01:28:44.874Z,54.03
2023-05-19T01:29:44.945Z,51.40
2023-05-19T01:30:44.999Z,53.41
2023-05-19T01:31:45.071Z,54.14
2023-05-19T01:32:45.123Z,55.74
2023-05-19T01:33:45.175Z,55.81
2023-05-19T01:34:45.213Z,52.94
2023-05-19T01:35:45.277Z,53.92
2023-05-19T01:36:45.350Z,52.80
2023-05-19T01:37:45.412Z,49.84
2023-05-19T01:38:45.476Z,52.68
2023-05-19T01:39:45.533Z,53.70
2023-05-19T01:40:45.635Z,53.44
2023-05-19T01:41:45.669Z,53.19
2023-05-19T01:42:45.705Z,52.61
2023-05-19T01:43:45.779Z,53.68
2023-05-19T01:44:45.838Z,52.12
2023-05-19T01:45:45.996Z,50.50
2023-05-19T01:46:45.967Z,54.71
2023-05-19T01:47:46.041Z,52.90
2023-05-19T01:48:46.105Z,52.55
2023-05-19T01:49:46.174Z,54.28
2023-05-19T01:50:46.224Z,52.32
2023-05-19T01:51:46.296Z,54.67
2023-05-19T01:52:46.367Z,51.25
2023-05-19T01:53:46.434Z,54.05
2023-05-19T01:54:46.493Z,49.88
2023-05-19T01:55:46.545Z,53.05
2023-05-19T01:56:46.624Z,53.89
2023-05-19T01:57:46.689Z,52.18
2023-05-19T01:58:46.751Z,54.14
2023-05-19T01:59:46.814Z,53.06
2023-05-19T02:00:46.860Z,53.51
2023-05-19T02:01:47.073Z,51.67
2023-05-19T02:02:47.045Z,48.66
2023-05-19T02:03:47.060Z,51.41
2023-05-19T02:04:47.180Z,51.42
2023-05-19T02:05:47.175Z,53.40
2023-05-19T02:06:47.255Z,52.86
2023-05-19T02:07:47.348Z,50.44
2023-05-19T02:08:47.375Z,50.44
2023-05-19T02:09:47.422Z,52.10
2023-05-19T02:10:47.482Z,50.92
2023-05-19T02:11:47.551Z,51.81
2023-05-19T02:12:47.618Z,51.67
2023-05-19T02:13:47.664Z,52.87
2023-05-19T02:14:47.732Z,51.92
2023-05-19T02:15:47.823Z,51.97
2023-05-19T02:16:47.860Z,49.94
2023-05-19T02:17:48.071Z,51.71
2023-05-19T02:18:48.037Z,51.75
2023-05-19T02:19:48.052Z,53.78
2023-05-19T02:20:48.108Z,48.83
2023-05-19T02:21:48.180Z,51.11
2023-05-19T02:22:48.232Z,50.51
2023-05-19T02:23:48.291Z,51.11
2023-05-19T02:24:48.361Z,51.32
2023-05-19T02:25:48.430Z,52.34
2023-05-19T02:26:48.499Z,52.06
2023-05-19T02:27:48.575Z,50.51
2023-05-19T02:28:48.632Z,50.61
2023-05-19T02:29:48.705Z,52.44
2023-05-19T02:30:48.772Z,50.80
2023-05-19T02:31:48.869Z,52.37
2023-05-19T02:32:48.926Z,51.60
2023-05-19T02:33:48.982Z,50.42
2023-05-19T02:34:49.054Z,50.20
2023-05-19T02:35:49.126Z,50.88
2023-05-19T02:36:49.189Z,49.89
2023-05-19T02:37:49.259Z,50.23
2023-05-19T02:38:49.319Z,48.45
2023-05-19T02:39:49.396Z,50.37
2023-05-19T02:40:49.466Z,49.94
2023-05-19T02:41:49.536Z,49.63
2023-05-19T02:42:49.599Z,53.95
2023-05-19T02:43:49.660Z,50.09
2023-05-19T02:44:49.725Z,52.03
2023-05-19T02:45:49.798Z,48.64
2023-05-19T02:46:49.890Z,49.00
2023-05-19T02:47:49.955Z,52.49
2023-05-19T02:48:49.986Z,49.98
2023-05-19T02:49:50.057Z,51.37
2023-05-19T02:50:50.110Z,49.35
2023-05-19T02:51:50.196Z,47.54
2023-05-19T02:52:50.243Z,49.80
2023-05-19T02:53:50.316Z,48.43
2023-05-19T02:54:50.385Z,48.92
2023-05-19T02:55:50.449Z,50.72
2023-05-19T02:56:50.533Z,49.24
2023-05-19T02:57:50.596Z,50.77
2023-05-19T02:58:50.658Z,49.05
2023-05-19T02:59:50.793Z,50.66
2023-05-19T03:00:50.799Z,48.68
2023-05-19T03:01:50.943Z,50.05
2023-05-19T03:02:50.997Z,50.93
2023-05-19T03:03:51.141Z,49.63
2023-05-19T03:04:51.160Z,49.16
2023-05-19T03:05:51.171Z,46.02
2023-05-19T03:06:51.296Z,37.55
2023-05-19T03:07:51.294Z,31.18
2023-05-19T03:08:51.377Z,27.62
2023-05-19T03:09:51.447Z,26.02
2023-05-19T03:10:51.517Z,27.41
2023-05-19T03:11:51.629Z,28.07
2023-05-19T03:12:51.694Z,25.85
2023-05-19T03:13:51.770Z,26.76
2023-05-19T03:14:51.843Z,25.11
2023-05-19T03:15:51.959Z,28.38
2023-05-19T03:16:52.142Z,27.95
2023-05-19T03:17:52.202Z,24.06
2023-05-19T03:18:52.213Z,25.05
2023-05-19T03:19:52.296Z,25.64
2023-05-19T03:20:52.361Z,25.76
2023-05-19T03:21:52.455Z,26.68
2023-05-19T03:22:52.537Z,25.00
2023-05-19T03:23:52.631Z,27.08
2023-05-19T03:24:52.716Z,28.94
2023-05-19T03:25:52.817Z,29.26
2023-05-19T03:26:52.908Z,28.76
2023-05-19T03:27:53.011Z,25.24
2023-05-19T03:28:53.111Z,27.05
2023-05-19T03:29:53.189Z,27.05
2023-05-19T03:30:53.276Z,26.29
2023-05-19T03:31:53.346Z,26.96
2023-05-19T03:32:53.472Z,26.85
2023-05-19T03:33:53.488Z,25.00
2023-05-19T03:34:53.617Z,26.67
2023-05-19T03:35:53.636Z,26.47
2023-05-19T03:36:53.709Z,25.20
2023-05-19T03:37:53.813Z,25.67
2023-05-19T03:38:53.876Z,25.54
2023-05-19T03:39:53.949Z,25.08
2023-05-19T03:40:54.028Z,26.36
2023-05-19T03:41:54.095Z,26.09
2023-05-19T03:42:54.158Z,26.27
2023-05-19T03:43:54.217Z,25.00
2023-05-19T03:44:54.243Z,25.11
2023-05-19T03:45:54.300Z,25.19
2023-05-19T03:46:54.294Z,21.81
2023-05-19T03:47:54.335Z,19.31
2023-05-19T03:48:54.360Z,19.47
2023-05-19T03:49:54.367Z,25.00
2023-05-19T03:50:54.416Z,25.01
2023-05-19T03:51:54.447Z,28.20
2023-05-19T03:52:54.472Z,26.43
2023-05-19T03:53:54.492Z,25.00
2023-05-19T03:54:54.542Z,25.77
2023-05-19T03:55:54.544Z,25.89
2023-05-19T03:56:54.627Z,27.61
2023-05-19T03:57:54.666Z,27.91
2023-05-19T03:58:54.743Z,25.39
2023-05-19T03:59:54.763Z,25.38
2023-05-19T04:00:54.810Z,26.87
2023-05-19T04:01:54.883Z,25.00
2023-05-19T04:02:54.946Z,25.54
2023-05-19T04:03:55.046Z,25.90
2023-05-19T04:04:55.095Z,25.00
2023-05-19T04:05:55.030Z,26.37
2023-05-19T04:06:55.081Z,25.87
2023-05-19T04:07:55.114Z,26.92
2023-05-19T04:08:55.167Z,27.61
2023-05-19T04:09:55.220Z,25.02
2023-05-19T04:10:55.277Z,25.49
2023-05-19T04:11:55.337Z,27.86
2023-05-19T04:12:55.376Z,25.32
2023-05-19T04:13:55.423Z,27.13
2023-05-19T04:14:55.471Z,26.24
2023-05-19T04:15:55.566Z,25.14
2023-05-19T04:16:55.574Z,25.58
2023-05-19T04:17:55.670Z,27.40
2023-05-19T04:18:55.682Z,25.50
2023-05-19T04:19:55.750Z,27.10
2023-05-19T04:20:55.748Z,27.91
2023-05-19T04:21:55.782Z,26.24
2023-05-19T04:22:55.824Z,26.60
2023-05-19T04:23:55.891Z,26.82
2023-05-19T04:24:55.931Z,25.28
2023-05-19T04:25:55.977Z,27.31
2023-05-19T04:26:56.045Z,27.75
2023-05-19T04:27:56.073Z,29.69
2023-05-19T04:28:56.103Z,29.08
2023-05-19T04:29:56.204Z,28.92
2023-05-19T04:30:56.283Z,29.73
2023-05-19T04:31:56.271Z,25.69
2023-05-19T04:32:56.365Z,27.20
2023-05-19T04:33:56.385Z,28.54
2023-05-19T04:34:56.424Z,29.30
2023-05-19T04:35:56.483Z,27.07
2023-05-19T04:36:56.527Z,26.99
2023-05-19T04:37:56.570Z,27.62
2023-05-19T04:38:56.624Z,25.72
2023-05-19T04:39:56.677Z,25.48
2023-05-19T04:40:56.738Z,25.70
2023-05-19T04:41:56.826Z,26.49
2023-05-19T04:42:56.841Z,27.86
2023-05-19T04:43:56.886Z,27.88
2023-05-19T04:44:56.946Z,27.93
2023-05-19T04:45:57.012Z,26.99
2023-05-19T04:46:57.119Z,27.74
2023-05-19T04:47:57.151Z,27.48
2023-05-19T04:48:57.202Z,25.34
2023-05-19T04:49:57.208Z,27.24
2023-05-19T04:50:57.267Z,27.56
2023-05-19T04:51:57.298Z,27.63
2023-05-19T04:52:57.337Z,27.62
2023-05-19T04:53:57.382Z,28.31
2023-05-19T04:54:57.402Z,27.47
2023-05-19T04:55:57.446Z,28.16
2023-05-19T04:56:57.479Z,28.08
2023-05-19T04:57:57.517Z,29.32
2023-05-19T04:58:57.556Z,29.64
2023-05-19T04:59:57.585Z,29.32
2023-05-19T05:00:57.672Z,29.55
2023-05-19T05:01:57.735Z,29.78
2023-05-19T05:02:57.891Z,29.98
2023-05-19T05:03:57.755Z,30.31
2023-05-19T05:04:57.756Z,30.66
2023-05-19T05:05:57.792Z,29.91
2023-05-19T05:06:57.839Z,29.82
2023-05-19T05:07:57.857Z,31.79
2023-05-19T05:08:57.878Z,30.83
2023-05-19T05:09:57.914Z,31.28
2023-05-19T05:10:57.967Z,29.65
2023-05-19T05:11:58.008Z,31.75
2023-05-19T05:12:58.046Z,30.27
2023-05-19T05:13:58.330Z,30.10
2023-05-19T05:14:58.130Z,29.63
2023-05-19T05:15:58.230Z,30.66
2023-05-19T05:16:58.221Z,30.49
2023-05-19T05:17:58.310Z,29.75
2023-05-19T05:18:58.309Z,30.48
2023-05-19T05:19:58.341Z,32.33
2023-05-19T05:20:58.346Z,29.64
2023-05-19T05:21:58.395Z,31.22
2023-05-19T05:22:58.416Z,31.40
2023-05-19T05:23:58.450Z,31.53
2023-05-19T05:24:58.507Z,31.56
2023-05-19T05:25:58.540Z,31.79
2023-05-19T05:26:58.586Z,30.73
2023-05-19T05:27:58.606Z,30.60
2023-05-19T05:28:58.650Z,32.58
2023-05-19T05:29:59.365Z,30.72
2023-05-19T05:30:58.724Z,33.74
2023-05-19T05:31:58.797Z,32.01
2023-05-19T05:32:58.883Z,32.24
2023-05-19T05:33:58.818Z,32.22
2023-05-19T05:34:58.856Z,32.72
2023-05-19T05:35:58.898Z,33.23
2023-05-19T05:36:58.955Z,34.04
2023-05-19T05:37:58.970Z,33.53
2023-05-19T05:38:59.007Z,32.99
2023-05-19T05:39:59.046Z,33.56
2023-05-19T05:40:59.075Z,36.67
2023-05-19T05:41:59.112Z,36.12
2023-05-19T05:42:59.155Z,36.76
2023-05-19T05:43:59.200Z,35.33
2023-05-19T05:44:59.233Z,37.56
2023-05-19T05:45:59.275Z,35.16
2023-05-19T05:46:59.308Z,35.62
2023-05-19T05:47:59.358Z,34.82
2023-05-19T05:48:59.363Z,36.31
2023-05-19T05:49:59.403Z,38.46
2023-05-19T05:50:59.473Z,34.16
2023-05-19T05:52:59.575Z,38.40
2023-05-19T05:53:59.533Z,37.31
2023-05-19T05:54:59.583Z,36.72
2023-05-19T05:55:59.626Z,35.76
2023-05-19T05:56:59.685Z,39.77
2023-05-19T05:57:59.708Z,39.01
2023-05-19T05:58:59.757Z,41.34
2023-05-19T05:59:59.807Z,40.26
2023-05-19T06:00:59.816Z,40.57
2023-05-19T06:02:00.044Z,41.05
2023-05-19T06:03:00.044Z,41.78
2023-05-19T06:03:59.919Z,43.10
2023-05-19T06:04:59.969Z,45.37
2023-05-19T06:06:00.086Z,43.95
2023-05-19T06:07:00.024Z,42.86
2023-05-19T06:08:00.058Z,44.13
2023-05-19T06:09:00.075Z,42.77
2023-05-19T06:10:00.169Z,44.48
2023-05-19T06:11:00.161Z,45.52
2023-05-19T06:12:00.177Z,45.97
2023-05-19T06:13:00.262Z,45.76
2023-05-19T06:14:00.261Z,46.42
2023-05-19T06:15:00.306Z,46.96
2023-05-19T06:16:01.953Z,47.92
2023-05-19T06:17:00.369Z,47.64
2023-05-19T06:18:00.414Z,47.60
2023-05-19T06:19:00.434Z,48.11
2023-05-19T06:20:00.446Z,48.88
2023-05-19T06:21:00.485Z,49.11
2023-05-19T06:22:00.520Z,47.89
2023-05-19T06:23:00.559Z,50.62
2023-05-19T06:24:00.590Z,49.53
2023-05-19T06:25:00.664Z,49.72
2023-05-19T06:26:00.660Z,51.18
2023-05-19T06:27:00.712Z,51.03
2023-05-19T06:28:00.715Z,53.78
2023-05-19T06:29:00.777Z,54.56
2023-05-19T06:30:00.849Z,54.47
2023-05-19T06:31:00.877Z,55.88
2023-05-19T06:32:00.923Z,57.08
2023-05-19T06:33:01.003Z,57.28
2023-05-19T06:34:01.059Z,58.19
2023-05-19T06:35:01.100Z,59.92
2023-05-19T06:36:01.158Z,59.97
2023-05-19T06:37:01.195Z,60.13
2023-05-19T06:38:01.207Z,60.23
2023-05-19T06:39:02.664Z,60.19
2023-05-19T06:40:01.308Z,62.10
2023-05-19T06:41:01.317Z,63.57
2023-05-19T06:42:01.359Z,62.64
2023-05-19T06:43:01.386Z,62.42
2023-05-19T06:44:01.433Z,62.79
2023-05-19T06:45:01.481Z,63.42
2023-05-19T06:46:01.477Z,62.23
2023-05-19T06:47:01.515Z,62.12
2023-05-19T06:48:01.539Z,61.97
2023-05-19T06:49:01.539Z,60.88
2023-05-19T06:50:01.590Z,61.52
2023-05-19T06:51:01.614Z,61.82
2023-05-19T06:52:01.655Z,60.99
2023-05-19T06:53:01.671Z,59.23
2023-05-19T06:54:01.713Z,61.56
2023-05-19T06:55:01.744Z,62.73
2023-05-19T06:56:01.770Z,66.50
2023-05-19T06:57:01.791Z,67.10
2023-05-19T06:58:01.812Z,70.71
2023-05-19T06:59:01.842Z,73.34
2023-05-19T07:00:01.892Z,80.66
2023-05-19T07:01:01.916Z,86.04
2023-05-19T07:02:02.030Z,92.05
2023-05-19T07:03:02.237Z,97.50
2023-05-19T07:04:02.174Z,102.16
2023-05-19T07:05:02.088Z,108.89
2023-05-19T07:06:02.110Z,115.96
2023-05-19T07:07:02.178Z,117.93
2023-05-19T07:08:02.204Z,118.52
2023-05-19T07:09:02.247Z,124.78
2023-05-19T07:10:02.296Z,126.38
2023-05-19T07:11:02.339Z,125.33
2023-05-19T07:12:02.384Z,127.80
2023-05-19T07:13:02.409Z,129.78
2023-05-19T07:14:02.467Z,131.43
2023-05-19T07:15:02.510Z,133.02
2023-05-19T07:16:02.546Z,135.17
2023-05-19T07:17:02.579Z,137.72
2023-05-19T07:18:02.640Z,137.73
2023-05-19T07:19:02.695Z,139.52
2023-05-19T07:20:02.704Z,140.43
2023-05-19T07:21:02.717Z,143.06
2023-05-19T07:22:02.829Z,144.17
2023-05-19T07:23:02.814Z,147.32
2023-05-19T07:24:02.858Z,150.03
2023-05-19T07:25:02.922Z,153.65
2023-05-19T07:26:02.951Z,163.51
2023-05-19T07:27:02.990Z,175.52
2023-05-19T07:28:03.028Z,187.64
2023-05-19T07:29:03.056Z,195.39
2023-05-19T07:30:03.071Z,199.80
2023-05-19T07:31:03.135Z,202.99
2023-05-19T07:32:03.175Z,212.09
2023-05-19T07:33:03.231Z,220.15
2023-05-19T07:34:03.288Z,225.38
2023-05-19T07:35:03.267Z,237.93
2023-05-19T07:36:03.310Z,238.34
2023-05-19T07:37:03.332Z,240.28
2023-05-19T07:38:03.353Z,244.88
2023-05-19T07:39:03.482Z,252.76
2023-05-19T07:40:03.411Z,262.82
2023-05-19T07:41:03.453Z,249.82
2023-05-19T07:42:03.501Z,250.00
2023-05-19T07:43:03.491Z,247.83
2023-05-19T07:44:03.525Z,248.67
2023-05-19T07:45:03.598Z,249.88
2023-05-19T07:46:03.765Z,248.16
2023-05-19T07:47:03.711Z,248.37
2023-05-19T07:48:03.795Z,248.36
2023-05-19T07:49:03.834Z,249.90
2023-05-19T07:50:03.906Z,249.23
2023-05-19T07:51:03.996Z,246.55
2023-05-19T07:52:04.032Z,248.80
2023-05-19T07:53:04.092Z,248.06
2023-05-19T07:54:04.174Z,245.65
2023-05-19T07:55:04.259Z,248.13
2023-05-19T07:56:04.366Z,248.57
2023-05-19T07:57:04.405Z,245.75
2023-05-19T07:58:04.444Z,243.75
2023-05-19T07:59:04.540Z,241.41
2023-05-19T08:00:04.650Z,236.08
2023-05-19T08:01:04.681Z,225.02
2023-05-19T08:02:04.810Z,208.82
2023-05-19T08:03:05.070Z,193.89
2023-05-19T08:04:05.061Z,189.59
2023-05-19T08:05:05.003Z,181.11
2023-05-19T08:06:05.077Z,166.57
2023-05-19T08:07:05.092Z,165.07
2023-05-19T08:08:05.117Z,158.52
2023-05-19T08:09:05.199Z,155.34
2023-05-19T08:10:05.257Z,148.82
2023-05-19T08:11:05.229Z,142.42
2023-05-19T08:12:05.251Z,139.97
2023-05-19T08:13:05.279Z,134.22
2023-05-19T08:14:05.285Z,129.17
2023-05-19T08:15:05.322Z,129.09
2023-05-19T08:16:05.390Z,121.49
2023-05-19T08:17:05.385Z,121.66
2023-05-19T08:18:05.516Z,114.96
2023-05-19T08:19:05.478Z,108.50
2023-05-19T08:20:05.471Z,103.04
2023-05-19T08:21:05.496Z,95.77
2023-05-19T08:22:05.522Z,92.01
2023-05-19T08:23:05.553Z,85.72
2023-05-19T08:24:05.572Z,80.87
2023-05-19T08:25:05.595Z,79.43
2023-05-19T08:26:05.756Z,75.53
2023-05-19T08:27:05.792Z,71.39
2023-05-19T08:28:05.840Z,67.70
2023-05-19T08:29:05.903Z,61.66
2023-05-19T08:30:05.999Z,58.72
2023-05-19T08:31:06.188Z,53.92
2023-05-19T08:32:06.185Z,50.43
2023-05-19T08:33:06.370Z,46.64
2023-05-19T08:34:06.276Z,42.58
2023-05-19T08:35:06.340Z,42.34
2023-05-19T08:36:06.380Z,39.10
2023-05-19T08:37:06.453Z,37.40
2023-05-19T08:38:06.502Z,33.32
2023-05-19T08:39:06.592Z,29.81
2023-05-19T08:40:06.697Z,29.81
2023-05-19T08:41:06.762Z,27.32
2023-05-19T08:42:06.844Z,25.00
2023-05-19T08:43:06.852Z,25.15
2023-05-19T08:44:06.887Z,24.51
2023-05-19T08:45:06.926Z,22.94
2023-05-19T08:46:06.998Z,21.73
2023-05-19T08:47:07.053Z,17.79
2023-05-19T08:48:07.060Z,25.05
2023-05-19T08:49:07.053Z,25.74
2023-05-19T08:50:07.075Z,27.38
2023-05-19T08:51:07.100Z,25.50
2023-05-19T08:52:07.174Z,27.25
2023-05-19T08:53:15.104Z,26.89
2023-05-19T08:54:08.323Z,26.72
2023-05-19T08:55:07.325Z,23.86
2023-05-19T08:56:07.347Z,22.64
2023-05-19T08:57:07.371Z,23.85
2023-05-19T08:58:07.415Z,26.96
2023-05-19T08:59:07.413Z,25.52
2023-05-19T09:00:07.442Z,21.36
2023-05-19T09:01:07.520Z,19.41
2023-05-19T09:02:07.505Z,19.56
2023-05-19T09:04:07.647Z,26.52
2023-05-19T09:05:07.598Z,26.67
2023-05-19T09:06:07.669Z,28.99
2023-05-19T09:07:07.655Z,33.57
2023-05-19T09:08:07.658Z,44.00
2023-05-19T09:09:07.697Z,47.40
2023-05-19T09:10:07.705Z,51.39
2023-05-19T09:11:07.759Z,53.01
2023-05-19T09:12:07.783Z,55.19
2023-05-19T09:13:07.807Z,57.84
2023-05-19T09:14:07.867Z,58.08
2023-05-19T09:15:07.850Z,58.81
2023-05-19T09:16:07.904Z,60.43
2023-05-19T09:17:07.911Z,62.20
2023-05-19T09:18:07.981Z,68.47
2023-05-19T09:19:07.977Z,71.88
2023-05-19T09:20:07.966Z,73.03
2023-05-19T09:21:07.984Z,75.80
2023-05-19T09:22:08.066Z,78.35
2023-05-19T09:23:08.170Z,81.69
2023-05-19T09:24:08.272Z,80.55
2023-05-19T09:25:08.336Z,86.52
2023-05-19T09:26:08.444Z,83.12
2023-05-19T09:27:08.517Z,85.44
2023-05-19T09:28:08.593Z,88.60
2023-05-19T09:29:08.683Z,90.74
2023-05-19T09:30:08.749Z,93.93
2023-05-19T09:31:08.838Z,94.54
2023-05-19T09:32:08.986Z,97.42
2023-05-19T09:33:09.011Z,95.62
2023-05-19T09:34:09.104Z,99.69
2023-05-19T09:35:09.106Z,99.92
2023-05-19T09:36:09.147Z,100.47
2023-05-19T09:37:09.175Z,102.18
2023-05-19T09:38:09.208Z,102.66
2023-05-19T09:39:09.248Z,108.74
2023-05-19T09:40:11.082Z,109.14
2023-05-19T09:41:09.467Z,110.19
2023-05-19T09:42:09.528Z,114.91
2023-05-19T09:43:09.596Z,113.05
2023-05-19T09:44:09.691Z,115.77
2023-05-19T09:45:09.743Z,118.96
2023-05-19T09:46:11.813Z,117.68
2023-05-19T09:47:09.857Z,120.81
2023-05-19T09:48:09.910Z,120.34
2023-05-19T09:49:09.914Z,120.03
2023-05-19T09:50:09.962Z,120.79
2023-05-19T09:51:09.946Z,123.18
2023-05-19T09:52:11.130Z,123.55
2023-05-19T09:53:10.002Z,127.01
2023-05-19T09:54:10.029Z,129.10
2023-05-19T09:55:10.048Z,128.38
2023-05-19T09:56:10.316Z,128.55
2023-05-19T09:57:10.116Z,129.89
2023-05-19T09:58:12.077Z,128.49
2023-05-19T09:59:10.268Z,132.83
2023-05-19T10:00:10.336Z,132.87
2023-05-19T10:01:10.405Z,135.07
2023-05-19T10:02:10.472Z,133.95
2023-05-19T10:03:10.556Z,132.19
2023-05-19T10:04:10.576Z,135.52
2023-05-19T10:05:10.757Z,136.37
2023-05-19T10:06:10.699Z,136.71
2023-05-19T10:07:10.758Z,130.58
2023-05-19T10:08:10.826Z,132.58
2023-05-19T10:09:10.862Z,135.18
2023-05-19T10:10:10.932Z,133.71
2023-05-19T10:11:10.969Z,131.60
2023-05-19T10:12:11.042Z,128.97
2023-05-19T10:13:11.079Z,134.71
2023-05-19T10:14:11.145Z,135.73
2023-05-19T10:15:11.214Z,125.73
2023-05-19T10:16:11.297Z,130.30
2023-05-19T10:17:11.308Z,130.58
2023-05-19T10:18:11.389Z,134.11
2023-05-19T10:19:11.507Z,140.33
2023-05-19T10:20:11.468Z,136.62
2023-05-19T10:21:11.511Z,138.91
2023-05-19T10:22:11.564Z,141.83
2023-05-19T10:23:11.672Z,144.54
2023-05-19T10:24:13.340Z,140.58
2023-05-19T10:25:11.795Z,143.35
2023-05-19T10:26:11.846Z,140.97
2023-05-19T10:27:11.921Z,147.46
2023-05-19T10:28:11.952Z,136.04
2023-05-19T10:29:11.986Z,141.62
2023-05-19T10:30:13.197Z,136.70
2023-05-19T10:31:12.056Z,139.62
2023-05-19T10:32:12.189Z,141.77
2023-05-19T10:33:12.223Z,141.52
2023-05-19T10:34:12.204Z,140.06
2023-05-19T10:35:12.251Z,145.21
2023-05-19T10:36:12.312Z,148.34
2023-05-19T10:37:12.335Z,145.23
2023-05-19T10:38:12.378Z,147.04
2023-05-19T10:39:12.407Z,145.13
2023-05-19T10:40:12.485Z,144.04
2023-05-19T10:41:12.506Z,140.92
2023-05-19T10:42:12.583Z,145.46
2023-05-19T10:43:12.614Z,141.91
2023-05-19T10:44:12.649Z,139.86
2023-05-19T10:45:12.689Z,138.28
2023-05-19T10:46:12.759Z,135.67
2023-05-19T10:47:12.905Z,139.29
2023-05-19T10:48:12.923Z,145.83
2023-05-19T10:49:12.972Z,147.56
2023-05-19T10:50:13.093Z,144.86
2023-05-19T10:51:13.940Z,140.58
2023-05-19T10:52:13.419Z,146.54
2023-05-19T10:53:13.228Z,141.95
2023-05-19T10:54:14.437Z,140.68
2023-05-19T10:55:13.393Z,140.80
2023-05-19T10:56:13.361Z,139.65
2023-05-19T10:57:13.490Z,141.44
2023-05-19T10:58:13.535Z,148.15
2023-05-19T10:59:13.568Z,145.45
2023-05-19T11:00:13.770Z,145.50
2023-05-19T11:01:13.615Z,138.72
2023-05-19T11:02:13.799Z,145.37
2023-05-19T11:03:13.818Z,144.23
2023-05-19T11:04:13.714Z,146.05
2023-05-19T11:05:13.692Z,143.75
2023-05-19T11:06:13.725Z,144.16
2023-05-19T11:07:13.750Z,148.01
2023-05-19T11:08:13.757Z,146.75
2023-05-19T11:09:13.793Z,143.06
2023-05-19T11:10:13.851Z,135.93
2023-05-19T11:11:13.832Z,142.95
2023-05-19T11:12:13.864Z,144.36
2023-05-19T11:13:14.942Z,149.87
2023-05-19T11:14:13.902Z,150.58
2023-05-19T11:15:13.912Z,139.97
2023-05-19T11:16:13.958Z,137.69
2023-05-19T11:17:13.974Z,136.40
2023-05-19T11:18:13.992Z,125.52
2023-05-19T11:19:14.023Z,125.21
2023-05-19T11:20:14.042Z,125.39
2023-05-19T11:21:14.081Z,125.97
2023-05-19T11:22:14.180Z,128.16
2023-05-19T11:23:14.127Z,132.31
2023-05-19T11:24:14.086Z,130.07
2023-05-19T11:25:14.115Z,128.72
2023-05-19T11:26:14.124Z,128.79
2023-05-19T11:27:14.157Z,123.71
2023-05-19T11:28:14.165Z,118.31
2023-05-19T11:29:14.194Z,113.39
2023-05-19T11:30:14.261Z,111.03
2023-05-19T11:31:14.242Z,117.56
2023-05-19T11:32:14.310Z,116.07
2023-05-19T11:33:14.336Z,118.99
2023-05-19T11:34:14.300Z,117.40
2023-05-19T11:35:14.327Z,118.98
2023-05-19T11:36:14.355Z,123.84
2023-05-19T11:37:14.478Z,133.50
2023-05-19T11:38:14.664Z,131.50
2023-05-19T11:39:14.600Z,134.51
2023-05-19T11:40:14.621Z,132.98
2023-05-19T11:41:14.658Z,134.74
2023-05-19T11:42:14.696Z,132.38
2023-05-19T11:43:14.717Z,137.48
2023-05-19T11:44:14.830Z,135.52
2023-05-19T11:45:14.947Z,139.00
2023-05-19T11:46:15.078Z,142.01
2023-05-19T11:47:15.198Z,145.37
2023-05-19T11:48:15.318Z,143.03
2023-05-19T11:49:15.444Z,146.09
2023-05-19T11:50:15.528Z,149.12
2023-05-19T11:51:15.527Z,144.77
2023-05-19T11:52:15.584Z,141.98
2023-05-19T11:53:15.605Z,136.00
2023-05-19T11:54:15.638Z,137.88
2023-05-19T11:55:15.780Z,139.54
2023-05-19T11:56:15.807Z,144.22
2023-05-19T11:57:15.917Z,148.44
2023-05-19T11:58:15.909Z,149.68
2023-05-19T11:59:15.893Z,150.38
2023-05-19T12:00:15.912Z,152.02
2023-05-19T12:01:16.047Z,152.84
2023-05-19T12:02:16.239Z,154.69
2023-05-19T12:03:16.316Z,144.70
2023-05-19T12:04:16.238Z,145.03
2023-05-19T12:05:16.386Z,146.40
2023-05-19T12:06:16.314Z,147.26
2023-05-19T12:07:16.305Z,152.25
2023-05-19T12:08:16.340Z,158.24
2023-05-19T12:09:16.350Z,162.18
2023-05-19T12:10:16.371Z,160.29
2023-05-19T12:11:18.027Z,156.84
2023-05-19T12:12:16.418Z,159.12
2023-05-19T12:13:16.424Z,160.19
2023-05-19T12:14:16.449Z,157.20
2023-05-19T12:15:16.454Z,155.69
2023-05-19T12:16:16.536Z,161.02
2023-05-19T12:17:16.540Z,160.55
2023-05-19T12:18:16.520Z,161.26
2023-05-19T12:19:16.537Z,162.13
2023-05-19T12:20:16.535Z,160.44
2023-05-19T12:21:16.564Z,156.23
2023-05-19T12:22:16.574Z,155.75
2023-05-19T12:23:16.632Z,156.42
2023-05-19T12:24:16.608Z,159.89
2023-05-19T12:25:16.615Z,156.57
2023-05-19T12:26:16.641Z,156.66
2023-05-19T12:27:16.649Z,153.59
2023-05-19T12:28:16.658Z,157.99
2023-05-19T12:29:16.685Z,160.22
2023-05-19T12:30:16.688Z,161.89
2023-05-19T12:31:16.731Z,164.72
2023-05-19T12:32:16.699Z,163.22
2023-05-19T12:33:16.784Z,161.22
2023-05-19T12:34:16.762Z,161.41
2023-05-19T12:35:16.862Z,155.67
2023-05-19T12:36:16.903Z,154.30
2023-05-19T12:37:16.933Z,159.12
2023-05-19T12:38:16.952Z,160.42
2023-05-19T12:39:17.703Z,150.53
2023-05-19T12:40:17.115Z,151.36
2023-05-19T12:41:17.132Z,146.96
2023-05-19T12:42:17.152Z,150.26
2023-05-19T12:43:17.184Z,150.02
2023-05-19T12:44:17.193Z,154.23
2023-05-19T12:45:17.224Z,150.44
2023-05-19T12:46:17.322Z,154.22
2023-05-19T12:47:17.258Z,148.39